createdAt,value
2019-02-19T00:02:25.757Z,-1.13
2019-02-19T00:04:58.140Z,-1.38
2019-02-19T00:07:30.551Z,-1.45
2019-02-19T00:10:02.914Z,-1.62
2019-02-19T00:12:35.903Z,-1.21
2019-02-19T00:15:08.872Z,-1.46
2019-02-19T00:17:41.304Z,-1.58
2019-02-19T00:20:13.828Z,-1.67
2019-02-19T00:22:46.333Z,-1.71
2019-02-19T00:25:19.092Z,-1.78
2019-02-19T00:27:51.470Z,-1.64
2019-02-19T00:30:23.958Z,-1.69
2019-02-19T00:32:56.814Z,-1.76
2019-02-19T00:35:29.224Z,-1.80
2019-02-19T00:38:01.733Z,-1.80
2019-02-19T00:40:34.194Z,-1.77
2019-02-19T00:43:06.725Z,-1.86
2019-02-19T00:45:39.110Z,-1.89
2019-02-19T00:48:11.254Z,-1.90
2019-02-19T00:50:43.681Z,-1.50
2019-02-19T00:53:16.100Z,-1.58
2019-02-19T00:55:48.471Z,-1.41
2019-02-19T00:58:21.126Z,-1.67
2019-02-19T01:00:53.915Z,-1.80
2019-02-19T01:03:26.842Z,-1.80
2019-02-19T01:05:59.237Z,-1.94
2019-02-19T01:08:32.670Z,-2.03
2019-02-19T01:11:14.239Z,-2.10
2019-02-19T01:13:46.552Z,-1.66
2019-02-19T01:16:19.394Z,-1.60
2019-02-19T01:18:51.869Z,-1.65
2019-02-19T01:21:24.285Z,-1.90
2019-02-19T01:23:59.119Z,-2.04
2019-02-19T01:26:31.279Z,-1.98
2019-02-19T01:29:04.537Z,-2.04
2019-02-19T01:31:35.551Z,-1.78
2019-02-19T01:34:08.018Z,-1.91
2019-02-19T01:36:40.991Z,-1.85
2019-02-19T01:39:14.142Z,-1.68
2019-02-19T01:41:46.552Z,-1.41
2019-02-19T01:44:19.617Z,-1.36
2019-02-19T01:46:51.931Z,-1.18
2019-02-19T01:49:24.302Z,-1.26
2019-02-19T01:51:56.701Z,-1.59
2019-02-19T01:54:30.046Z,-1.84
2019-02-19T01:57:01.257Z,-1.78
2019-02-19T01:59:35.419Z,-1.76
2019-02-19T02:02:07.534Z,-1.70
2019-02-19T02:04:41.248Z,-1.44
2019-02-19T02:07:13.596Z,-1.36
2019-02-19T02:09:46.016Z,-1.42
2019-02-19T02:12:18.779Z,-1.65
2019-02-19T02:14:51.310Z,-1.95
2019-02-19T02:17:23.493Z,-1.94
2019-02-19T02:19:57.692Z,-1.95
2019-02-19T02:22:32.645Z,-2.02
2019-02-19T02:25:04.859Z,-2.11
2019-02-19T02:27:37.282Z,-2.12
2019-02-19T02:30:09.859Z,-2.22
2019-02-19T02:32:42.241Z,-2.24
2019-02-19T02:35:14.638Z,-2.25
2019-02-19T02:37:46.743Z,-2.42
2019-02-19T02:40:18.848Z,-2.43
2019-02-19T02:42:51.034Z,-2.04
2019-02-19T02:45:23.425Z,-2.05
2019-02-19T02:47:55.955Z,-2.22
2019-02-19T02:50:28.830Z,-2.16
2019-02-19T02:53:01.260Z,-2.07
2019-02-19T02:55:33.736Z,-2.29
2019-02-19T02:58:06.633Z,-2.45
2019-02-19T03:00:38.988Z,-2.39
2019-02-19T03:03:11.200Z,-2.35
2019-02-19T03:06:12.952Z,-2.27
2019-02-19T03:08:45.044Z,-2.38
2019-02-19T03:11:17.576Z,-2.55
2019-02-19T03:13:50.320Z,-2.36
2019-02-19T03:16:22.955Z,-2.53
2019-02-19T03:18:55.423Z,-2.43
2019-02-19T03:21:27.787Z,-2.41
2019-02-19T03:24:00.326Z,-2.49
2019-02-19T03:26:32.747Z,-2.51
2019-02-19T03:29:05.164Z,-2.45
2019-02-19T03:31:37.514Z,-2.48
2019-02-19T03:34:09.897Z,-2.39
2019-02-19T03:36:42.053Z,-2.51
2019-02-19T03:39:14.569Z,-2.69
2019-02-19T03:41:46.927Z,-2.55
2019-02-19T03:44:19.032Z,-2.67
2019-02-19T03:46:51.103Z,-2.68
2019-02-19T03:49:23.196Z,-2.68
2019-02-19T03:51:55.639Z,-2.81
2019-02-19T03:54:28.756Z,-2.71
2019-02-19T03:57:01.284Z,-2.73
2019-02-19T03:59:33.873Z,-2.72
2019-02-19T04:02:06.442Z,-2.69
2019-02-19T04:04:38.818Z,-2.66
2019-02-19T04:07:10.970Z,-2.71
2019-02-19T04:09:43.068Z,-2.78
2019-02-19T04:12:15.519Z,-2.74
2019-02-19T04:14:47.936Z,-2.54
2019-02-19T04:17:20.283Z,-2.69
2019-02-19T04:19:52.703Z,-2.70
2019-02-19T04:22:25.173Z,-2.66
2019-02-19T04:24:57.574Z,-2.79
2019-02-19T04:27:30.041Z,-2.34
2019-02-19T04:30:02.465Z,-2.51
2019-02-19T04:32:34.804Z,-2.49
2019-02-19T04:35:07.267Z,-2.56
2019-02-19T04:37:39.633Z,-2.45
2019-02-19T04:40:12.001Z,-2.46
2019-02-19T04:42:44.347Z,-2.11
2019-02-19T04:45:16.456Z,-1.94
2019-02-19T04:47:48.896Z,-1.90
2019-02-19T04:50:21.275Z,-1.82
2019-02-19T04:52:54.197Z,-1.96
2019-02-19T04:55:26.567Z,-1.87
2019-02-19T04:57:58.966Z,-2.21
2019-02-19T05:00:31.347Z,-1.76
2019-02-19T05:03:03.689Z,-1.56
2019-02-19T05:05:36.400Z,-1.60
2019-02-19T05:08:09.591Z,-1.54
2019-02-19T05:10:42.372Z,-1.57
2019-02-19T05:13:14.736Z,-1.52
2019-02-19T05:15:46.943Z,-1.84
2019-02-19T05:18:19.319Z,-2.00
2019-02-19T05:20:51.469Z,-1.92
2019-02-19T05:23:24.032Z,-1.61
2019-02-19T05:25:57.299Z,-1.45
2019-02-19T05:28:28.280Z,-1.35
2019-02-19T05:31:00.449Z,-1.41
2019-02-19T05:33:32.793Z,-1.48
2019-02-19T05:36:04.988Z,-1.60
2019-02-19T05:38:37.372Z,-1.68
2019-02-19T05:41:10.267Z,-1.70
2019-02-19T05:43:42.614Z,-1.62
2019-02-19T05:46:14.712Z,-1.55
2019-02-19T05:48:47.255Z,-1.50
2019-02-19T05:51:20.319Z,-1.61
2019-02-19T05:53:52.611Z,-1.73
2019-02-19T05:56:25.175Z,-1.59
2019-02-19T05:59:16.662Z,-1.60
2019-02-19T06:01:48.811Z,-1.69
2019-02-19T06:04:21.222Z,-1.82
2019-02-19T06:06:53.629Z,-1.78
2019-02-19T06:09:26.063Z,-1.75
2019-02-19T06:11:58.633Z,-1.88
2019-02-19T06:14:30.974Z,-1.88
2019-02-19T06:17:03.225Z,-1.79
2019-02-19T06:19:35.622Z,-1.76
2019-02-19T06:22:07.749Z,-1.70
2019-02-19T06:24:40.119Z,-1.97
2019-02-19T06:27:12.205Z,-1.97
2019-02-19T06:29:44.555Z,-1.88
2019-02-19T06:32:16.681Z,-1.88
2019-02-19T06:34:49.429Z,-2.05
2019-02-19T06:37:21.531Z,-2.07
2019-02-19T06:39:54.314Z,-2.22
2019-02-19T06:42:27.031Z,-2.08
2019-02-19T06:44:59.456Z,-1.90
2019-02-19T06:47:31.839Z,-1.76
2019-02-19T06:50:03.929Z,-1.81
2019-02-19T06:52:36.572Z,-1.11
2019-02-19T06:55:09.284Z,-1.12
2019-02-19T06:57:41.624Z,-1.17
2019-02-19T07:00:14.115Z,-1.29
2019-02-19T07:03:00.859Z,-1.11
2019-02-19T07:05:32.969Z,-0.91
2019-02-19T07:08:05.398Z,-0.83
2019-02-19T07:10:37.835Z,-0.67
2019-02-19T07:13:10.247Z,-0.79
2019-02-19T07:15:43.046Z,-0.61
2019-02-19T07:18:15.482Z,-0.64
2019-02-19T07:20:48.044Z,-0.69
2019-02-19T07:23:20.425Z,-0.56
2019-02-19T07:25:52.987Z,-0.24
2019-02-19T07:28:25.387Z,-0.23
2019-02-19T07:30:57.807Z,-0.16
2019-02-19T07:33:30.319Z,0.08
2019-02-19T07:36:02.766Z,0.20
2019-02-19T07:38:35.132Z,0.29
2019-02-19T07:41:07.253Z,0.42
2019-02-19T07:43:39.761Z,0.40
2019-02-19T07:46:12.253Z,0.29
2019-02-19T07:48:44.656Z,0.42
2019-02-19T07:51:16.994Z,0.31
2019-02-19T07:53:49.826Z,0.53
2019-02-19T07:56:22.182Z,0.76
2019-02-19T07:58:54.359Z,0.81
2019-02-19T08:01:26.691Z,1.06
2019-02-19T08:03:58.802Z,1.36
2019-02-19T08:06:31.140Z,1.34
2019-02-19T08:09:04.779Z,1.55
2019-02-19T08:11:37.242Z,1.77
2019-02-19T08:14:09.605Z,1.81
2019-02-19T08:16:42.078Z,2.08
2019-02-19T08:19:14.797Z,2.27
2019-02-19T08:21:47.193Z,2.35
2019-02-19T08:24:19.368Z,2.45
2019-02-19T08:26:51.458Z,2.44
2019-02-19T08:29:24.281Z,2.62
2019-02-19T08:31:56.643Z,2.82
2019-02-19T08:34:28.754Z,3.06
2019-02-19T08:37:01.276Z,3.15
2019-02-19T08:39:33.630Z,3.07
2019-02-19T08:42:05.707Z,3.26
2019-02-19T08:44:38.143Z,3.24
2019-02-19T08:47:10.566Z,3.62
2019-02-19T08:49:42.711Z,3.70
2019-02-19T08:52:15.132Z,3.77
2019-02-19T08:54:47.647Z,3.92
2019-02-19T08:57:20.022Z,4.17
2019-02-19T08:59:52.121Z,4.16
2019-02-19T09:02:24.247Z,4.38
2019-02-19T09:04:56.412Z,4.59
2019-02-19T09:07:28.676Z,4.65
2019-02-19T09:10:01.398Z,4.60
2019-02-19T09:12:33.745Z,4.64
2019-02-19T09:15:06.644Z,4.81
2019-02-19T09:17:38.710Z,4.98
2019-02-19T09:20:11.822Z,5.37
2019-02-19T09:22:44.168Z,5.59
2019-02-19T09:25:16.317Z,5.92
2019-02-19T09:27:48.537Z,6.19
2019-02-19T09:30:21.175Z,6.13
2019-02-19T09:32:53.532Z,6.13
2019-02-19T09:35:25.648Z,6.29
2019-02-19T09:37:58.099Z,6.61
2019-02-19T09:40:30.530Z,6.63
2019-02-19T09:43:02.928Z,6.64
2019-02-19T09:45:35.391Z,6.75
2019-02-19T09:48:08.070Z,6.81
2019-02-19T09:50:40.488Z,6.73
2019-02-19T09:53:12.845Z,6.86
2019-02-19T09:55:44.949Z,6.89
2019-02-19T09:58:17.067Z,7.06
2019-02-19T10:00:49.374Z,7.23
2019-02-19T10:03:21.960Z,7.23
2019-02-19T10:05:54.312Z,7.16
2019-02-19T10:08:26.966Z,7.13
2019-02-19T10:10:59.509Z,7.14
2019-02-19T10:13:32.229Z,7.19
2019-02-19T10:16:04.605Z,7.18
2019-02-19T10:18:37.135Z,7.19
2019-02-19T10:21:09.805Z,7.28
2019-02-19T10:23:42.279Z,7.36
2019-02-19T10:26:14.763Z,7.42
2019-02-19T10:28:47.534Z,7.50
2019-02-19T10:31:19.891Z,7.56
2019-02-19T10:33:52.233Z,7.67
2019-02-19T10:36:24.591Z,7.74
2019-02-19T10:38:56.822Z,7.77
2019-02-19T10:41:29.214Z,7.80
2019-02-19T10:44:01.594Z,8.00
2019-02-19T10:46:33.998Z,8.21
2019-02-19T10:49:06.351Z,8.39
2019-02-19T10:51:38.442Z,8.80
2019-02-19T10:54:10.508Z,9.13
2019-02-19T10:56:42.601Z,9.22
2019-02-19T10:59:14.699Z,9.26
2019-02-19T11:01:46.763Z,8.88
2019-02-19T11:04:19.403Z,8.87
2019-02-19T11:06:51.594Z,8.79
2019-02-19T11:09:24.046Z,8.86
2019-02-19T11:11:58.130Z,8.81
2019-02-19T11:14:31.463Z,8.80
2019-02-19T11:17:03.825Z,8.83
2019-02-19T11:19:36.213Z,8.98
2019-02-19T11:22:08.570Z,9.01
2019-02-19T11:24:40.940Z,9.02
2019-02-19T11:27:13.343Z,9.05
2019-02-19T11:29:45.724Z,9.02
2019-02-19T11:32:17.778Z,9.04
2019-02-19T11:34:50.352Z,9.08
2019-02-19T11:37:22.691Z,9.12
2019-02-19T11:39:55.487Z,9.31
2019-02-19T11:42:28.144Z,9.35
2019-02-19T11:45:01.028Z,9.36
2019-02-19T11:47:33.478Z,9.48
2019-02-19T11:50:06.106Z,9.43
2019-02-19T11:52:38.450Z,9.42
2019-02-19T11:55:12.673Z,9.44
2019-02-19T11:57:45.670Z,9.63
2019-02-19T12:00:21.225Z,9.60
2019-02-19T12:02:54.237Z,9.68
2019-02-19T12:05:26.601Z,9.62
2019-02-19T12:07:58.708Z,9.70
2019-02-19T12:10:30.806Z,9.73
2019-02-19T12:13:03.242Z,9.74
2019-02-19T12:15:35.704Z,9.81
2019-02-19T12:18:08.071Z,9.88
2019-02-19T12:20:40.155Z,9.96
2019-02-19T12:23:12.391Z,9.83
2019-02-19T12:25:44.766Z,9.74
2019-02-19T12:28:17.177Z,9.65
2019-02-19T12:30:49.818Z,9.60
2019-02-19T12:33:22.259Z,9.65
2019-02-19T12:35:54.730Z,9.70
2019-02-19T12:38:27.119Z,9.58
2019-02-19T12:40:59.954Z,9.76
2019-02-19T12:43:32.867Z,9.97
2019-02-19T12:46:05.317Z,10.01
2019-02-19T12:48:37.658Z,10.07
2019-02-19T12:51:09.930Z,9.81
2019-02-19T12:53:42.403Z,9.78
2019-02-19T12:56:15.195Z,9.84
2019-02-19T12:58:47.870Z,9.78
2019-02-19T13:01:20.245Z,9.77
2019-02-19T13:03:52.626Z,9.63
2019-02-19T13:06:25.319Z,9.67
2019-02-19T13:08:57.826Z,9.69
2019-02-19T13:11:30.187Z,9.57
2019-02-19T13:14:02.723Z,9.55
2019-02-19T13:16:35.111Z,9.55
2019-02-19T13:19:07.465Z,9.53
2019-02-19T13:21:39.850Z,9.53
2019-02-19T13:24:12.222Z,9.43
2019-02-19T13:26:44.907Z,9.30
2019-02-19T13:29:17.413Z,9.30
2019-02-19T13:31:49.812Z,9.35
2019-02-19T13:34:21.886Z,9.22
2019-02-19T13:36:54.032Z,9.12
2019-02-19T13:39:26.203Z,9.13
2019-02-19T13:41:59.380Z,9.07
2019-02-19T13:44:30.743Z,8.98
2019-02-19T13:47:03.282Z,8.89
2019-02-19T13:49:36.150Z,8.93
2019-02-19T13:52:22.409Z,8.79
2019-02-19T13:54:54.296Z,8.67
2019-02-19T13:57:27.082Z,8.62
2019-02-19T13:59:59.868Z,8.62
2019-02-19T14:02:32.416Z,8.68
2019-02-19T14:05:04.787Z,8.64
2019-02-19T14:07:37.576Z,8.67
2019-02-19T14:10:09.949Z,8.59
2019-02-19T14:12:42.036Z,8.43
2019-02-19T14:15:25.958Z,8.37
2019-02-19T14:17:59.534Z,8.38
2019-02-19T14:20:50.284Z,8.52
2019-02-19T14:23:40.484Z,8.49
2019-02-19T14:26:34.755Z,8.45
2019-02-19T14:29:29.027Z,8.32
2019-02-19T14:32:23.354Z,8.65
2019-02-19T14:35:21.170Z,8.81
2019-02-19T14:38:15.475Z,8.88
2019-02-19T14:41:05.659Z,8.70
2019-02-19T14:44:13.259Z,8.74
2019-02-19T14:47:03.697Z,8.67
2019-02-19T14:49:48.361Z,8.62
2019-02-19T14:52:55.316Z,8.69
2019-02-19T14:56:00.347Z,8.74
2019-02-19T14:58:52.804Z,8.71
2019-02-19T15:01:47.422Z,8.62
2019-02-19T15:04:38.921Z,8.57
2019-02-19T15:07:30.433Z,8.52
2019-02-19T15:10:24.748Z,8.46
2019-02-19T15:13:13.672Z,8.47
2019-02-19T15:16:05.292Z,8.40
2019-02-19T15:19:06.059Z,8.42
2019-02-19T15:21:50.498Z,8.41
2019-02-19T15:24:48.121Z,8.31
2019-02-19T15:27:48.897Z,8.27
2019-02-19T15:30:42.995Z,8.15
2019-02-19T15:33:40.810Z,8.15
2019-02-19T15:36:41.589Z,8.17
2019-02-19T15:39:42.687Z,8.10
2019-02-19T15:42:39.682Z,8.06
2019-02-19T15:45:31.224Z,8.05
2019-02-19T15:48:12.026Z,7.97
2019-02-19T15:51:02.608Z,7.93
2019-02-19T15:54:09.566Z,7.89
2019-02-19T15:57:13.318Z,7.81
2019-02-19T16:00:16.563Z,7.65
2019-02-19T16:03:03.543Z,7.61
2019-02-19T16:05:59.559Z,7.51
2019-02-19T16:08:41.408Z,7.38
2019-02-19T16:11:31.820Z,7.23
2019-02-19T16:14:24.309Z,7.29
2019-02-19T16:17:28.229Z,7.18
2019-02-19T16:20:19.513Z,6.99
2019-02-19T16:23:17.613Z,6.84
2019-02-19T16:26:12.171Z,6.77
2019-02-19T16:29:02.671Z,6.63
2019-02-19T16:31:57.919Z,6.40
2019-02-19T16:34:38.495Z,6.22
2019-02-19T16:37:19.661Z,5.91
2019-02-19T16:40:03.247Z,5.79
2019-02-19T16:42:53.044Z,5.67
2019-02-19T16:45:42.666Z,5.55
2019-02-19T16:48:25.254Z,5.45
2019-02-19T16:51:08.200Z,5.21
2019-02-19T16:53:50.702Z,5.15
2019-02-19T16:56:51.050Z,5.00
2019-02-19T16:59:33.033Z,4.84
2019-02-19T17:02:13.835Z,4.66
2019-02-19T17:05:19.730Z,4.41
2019-02-19T17:08:16.662Z,4.28
2019-02-19T17:10:59.068Z,4.22
2019-02-19T17:13:57.874Z,4.03
2019-02-19T17:16:42.006Z,3.93
2019-02-19T17:19:32.333Z,3.83
2019-02-19T17:22:33.151Z,3.76
2019-02-19T17:25:28.200Z,3.62
2019-02-19T17:28:22.592Z,3.54
2019-02-19T17:31:21.230Z,3.38
2019-02-19T17:34:06.828Z,3.40
2019-02-19T17:36:58.634Z,3.19
2019-02-19T17:39:53.228Z,3.09
2019-02-19T17:42:40.482Z,2.93
2019-02-19T17:45:31.971Z,2.69
2019-02-19T17:48:38.595Z,2.65
2019-02-19T17:51:32.976Z,2.52
2019-02-19T17:54:28.158Z,2.57
2019-02-19T17:57:09.656Z,2.59
2019-02-19T18:00:01.357Z,2.28
2019-02-19T18:03:09.393Z,2.18
2019-02-19T18:05:54.975Z,2.04
2019-02-19T18:08:33.595Z,2.03
2019-02-19T18:11:44.571Z,1.95
2019-02-19T18:14:43.208Z,1.88
2019-02-19T18:17:36.695Z,1.82
2019-02-19T18:20:09.468Z,1.76
2019-02-19T18:22:42.193Z,1.67
2019-02-19T18:25:15.737Z,1.70
2019-02-19T18:27:48.977Z,1.67
2019-02-19T18:30:21.359Z,1.57
2019-02-19T18:32:54.013Z,1.60
2019-02-19T18:35:27.951Z,1.57
2019-02-19T18:38:01.726Z,1.45
2019-02-19T18:40:34.453Z,1.40
2019-02-19T18:43:06.659Z,1.30
2019-02-19T18:45:41.449Z,1.29
2019-02-19T18:48:14.412Z,1.22
2019-02-19T18:50:46.939Z,1.17
2019-02-19T18:53:19.296Z,1.09
2019-02-19T18:55:51.418Z,1.09
2019-02-19T18:58:23.588Z,1.07
2019-02-19T19:00:57.711Z,0.94
2019-02-19T19:03:30.711Z,0.89
2019-02-19T19:06:03.630Z,0.86
2019-02-19T19:08:35.984Z,0.83
2019-02-19T19:11:08.090Z,0.84
2019-02-19T19:13:40.169Z,0.82
2019-02-19T19:16:13.679Z,0.76
2019-02-19T19:18:47.417Z,0.67
2019-02-19T19:21:20.791Z,0.66
2019-02-19T19:23:53.712Z,0.58
2019-02-19T19:26:25.846Z,0.57
2019-02-19T19:28:59.235Z,0.52
2019-02-19T19:31:34.095Z,0.55
2019-02-19T19:34:06.239Z,0.59
2019-02-19T19:36:38.431Z,0.48
2019-02-19T19:39:10.821Z,0.40
2019-02-19T19:41:43.174Z,0.37
2019-02-19T19:44:15.269Z,0.29
2019-02-19T19:46:47.402Z,0.36
2019-02-19T19:49:19.567Z,0.25
2019-02-19T19:51:52.029Z,0.16
2019-02-19T19:54:24.987Z,0.08
2019-02-19T19:56:58.527Z,0.09
2019-02-19T19:59:30.823Z,0.07
2019-02-19T20:02:05.320Z,0.03
2019-02-19T20:04:40.164Z,0.09
2019-02-19T20:07:13.375Z,0.07
2019-02-19T20:09:46.337Z,0.01
2019-02-19T20:12:18.486Z,-0.09
2019-02-19T20:14:52.985Z,-0.09
2019-02-19T20:17:26.661Z,-0.04
2019-02-19T20:19:59.817Z,0.08
2019-02-19T20:22:34.172Z,0.23
2019-02-19T20:25:07.033Z,0.56
2019-02-19T20:27:41.758Z,0.68
2019-02-19T20:30:13.986Z,0.72
2019-02-19T20:32:46.808Z,0.83
2019-02-19T20:35:19.203Z,0.45
2019-02-19T20:37:54.103Z,0.29
2019-02-19T20:40:25.200Z,0.13
2019-02-19T20:42:58.737Z,0.07
2019-02-19T20:45:31.269Z,-0.08
2019-02-19T20:48:04.091Z,-0.11
2019-02-19T20:50:37.400Z,-0.10
2019-02-19T20:53:10.587Z,-0.19
2019-02-19T20:55:44.565Z,-0.20
2019-02-19T20:58:17.319Z,-0.29
2019-02-19T21:00:50.700Z,-0.37
2019-02-19T21:03:21.757Z,-0.48
2019-02-19T21:05:54.230Z,-0.56
2019-02-19T21:08:27.003Z,-0.65
2019-02-19T21:10:59.524Z,-0.57
2019-02-19T21:13:32.107Z,-0.72
2019-02-19T21:16:04.601Z,-0.61
2019-02-19T21:18:37.121Z,-0.61
2019-02-19T21:21:09.857Z,-0.59
2019-02-19T21:23:43.609Z,-0.71
2019-02-19T21:26:16.715Z,-0.34
2019-02-19T21:28:49.486Z,-0.12
2019-02-19T21:31:22.334Z,-0.08
2019-02-19T21:33:56.584Z,-0.20
2019-02-19T21:36:29.149Z,-0.25
2019-02-19T21:39:02.504Z,-0.38
2019-02-19T21:41:33.638Z,-0.56
2019-02-19T21:44:06.719Z,-0.72
2019-02-19T21:46:41.240Z,-0.73
2019-02-19T21:49:13.614Z,-0.77
2019-02-19T21:51:54.018Z,-0.50
2019-02-19T21:54:22.111Z,-0.30
2019-02-19T21:56:54.943Z,-0.43
2019-02-19T21:59:27.400Z,-0.55
2019-02-19T22:01:59.814Z,-0.47
2019-02-19T22:04:35.066Z,-0.36
2019-02-19T22:07:10.027Z,-0.63
2019-02-19T22:09:42.457Z,-0.88
2019-02-19T22:12:15.331Z,-0.88
2019-02-19T22:14:48.821Z,-0.91
2019-02-19T22:17:21.111Z,-1.00
2019-02-19T22:20:02.713Z,-1.02
2019-02-19T22:22:32.875Z,-0.92
2019-02-19T22:25:05.539Z,-1.05
2019-02-19T22:27:39.405Z,-1.03
2019-02-19T22:30:14.109Z,-1.17
2019-02-19T22:32:49.327Z,-1.19
2019-02-19T22:35:21.474Z,-1.28
2019-02-19T22:37:53.950Z,-1.29
2019-02-19T22:40:26.367Z,-1.32
2019-02-19T22:42:58.811Z,-1.33
2019-02-19T22:45:31.398Z,-1.36
2019-02-19T22:48:05.919Z,-1.42
2019-02-19T22:50:38.771Z,-1.41
2019-02-19T22:53:29.057Z,-1.43
2019-02-19T22:56:14.915Z,-1.52
2019-02-19T22:58:49.885Z,-1.60
2019-02-19T23:01:35.618Z,-1.61
2019-02-19T23:04:07.745Z,-1.74
2019-02-19T23:06:40.690Z,-1.75
2019-02-19T23:09:13.340Z,-1.72
2019-02-19T23:11:46.552Z,-1.57
2019-02-19T23:14:21.445Z,-1.81
2019-02-19T23:16:53.541Z,-1.71
2019-02-19T23:19:25.751Z,-1.78
2019-02-19T23:21:59.577Z,-1.75
2019-02-19T23:24:33.797Z,-1.26
2019-02-19T23:27:06.293Z,-1.63
2019-02-19T23:29:37.795Z,-1.83
2019-02-19T23:32:09.799Z,-1.74
2019-02-19T23:34:43.134Z,-1.94
2019-02-19T23:37:31.700Z,-1.95
2019-02-19T23:40:04.136Z,-2.03
2019-02-19T23:42:36.493Z,-2.04
2019-02-19T23:45:10.093Z,-2.08
2019-02-19T23:47:44.906Z,-2.10
2019-02-19T23:50:19.406Z,-2.11
2019-02-19T23:52:52.622Z,-2.14
2019-02-19T23:55:25.817Z,-2.09
2019-02-19T23:57:57.917Z,-1.84
